Time;durP1;ratioP1;P1;durP2;ratioP2;P2;SDS_P1;SDS_P2;PMS_P1;PMS_P2;Temp;Humidity;BMP_temperature;BMP_pressure;BME280_temperature;BME280_humidity;BME280_pressure;Samples;Min_cycle;Max_cycle;Signal;HPM_P1;HPM_P2
2023/12/11 00:00:21;;;;;;;26.02;6.13;;;;;;;10.41;86.10;99911.56;5058273;28;20118;-69
2023/12/11 00:02:47;;;;;;;26.33;3.88;;;;;;;10.38;86.79;99906.44;5064045;28;20021;-69
2023/12/11 00:05:13;;;;;;;16.73;2.97;;;;;;;10.36;86.62;99910.13;5061886;28;20040;-70
2023/12/11 00:07:38;;;;;;;30.10;4.80;;;;;;;10.31;86.97;99899.81;5063148;28;20510;-69
2023/12/11 00:10:04;;;;;;;29.02;4.82;;;;;;;10.24;86.33;99898.41;5062411;28;21176;-70
2023/12/11 00:12:29;;;;;;;26.88;4.72;;;;;;;10.18;87.42;99896.06;5061410;28;20078;-70
2023/12/11 00:14:55;;;;;;;26.67;4.95;;;;;;;10.18;87.35;99891.66;5062419;28;20119;-70
2023/12/11 00:17:27;;;;;;;18.17;3.58;;;;;;;10.13;87.45;99891.03;5064153;28;20059;-71
2023/12/11 00:19:53;;;;;;;19.85;4.47;;;;;;;10.11;87.81;99892.88;5059320;28;20024;-70
2023/12/11 00:22:18;;;;;;;30.00;4.78;;;;;;;10.10;87.44;99893.84;5056200;28;20495;-70
2023/12/11 00:24:43;;;;;;;26.05;4.72;;;;;;;10.19;87.50;99889.84;5055869;28;20024;-69
2023/12/11 00:27:11;;;;;;;33.25;5.82;;;;;;;10.22;87.60;99893.19;5059084;28;20032;-70
2023/12/11 00:29:37;;;;;;;25.88;4.35;;;;;;;10.31;87.63;99896.31;5060380;28;20112;-70
2023/12/11 00:32:03;;;;;;;26.90;4.18;;;;;;;10.26;87.88;99886.00;5059504;28;20388;-70
2023/12/11 00:34:28;;;;;;;26.90;4.80;;;;;;;10.36;87.25;99894.28;5058201;28;20032;-69
2023/12/11 00:36:54;;;;;;;25.63;4.13;;;;;;;10.31;87.17;99891.88;5059977;28;20024;-69
2023/12/11 00:39:19;;;;;;;25.13;4.65;;;;;;;10.31;87.25;99889.22;5058865;28;20057;-69
2023/12/11 00:41:45;;;;;;;22.45;4.55;;;;;;;10.31;87.01;99885.75;5056500;28;20083;-69
2023/12/11 00:44:10;;;;;;;29.08;4.50;;;;;;;10.31;87.02;99885.75;5058600;28;20032;-70
2023/12/11 00:46:35;;;;;;;38.65;5.25;;;;;;;10.32;86.57;99883.00;5053811;28;20062;-70
2023/12/11 00:49:02;;;;;;;23.92;4.25;;;;;;;10.36;86.61;99886.34;5063748;28;20024;-69
2023/12/11 00:51:27;;;;;;;25.35;5.95;;;;;;;10.33;86.77;99876.78;5064419;28;20028;-69
2023/12/11 00:53:53;;;;;;;30.92;5.05;;;;;;;10.29;86.98;99884.94;5058593;28;20657;-69
2023/12/11 00:56:18;;;;;;;26.95;4.53;;;;;;;10.38;87.11;99880.03;5061085;28;20445;-69
2023/12/11 00:58:44;;;;;;;21.83;3.90;;;;;;;10.41;86.77;99879.00;5058718;28;20021;-69
2023/12/11 01:01:09;;;;;;;28.55;5.20;;;;;;;10.41;86.82;99873.72;5059620;28;20035;-70
2023/12/11 01:03:36;;;;;;;24.58;5.18;;;;;;;10.51;86.38;99869.63;5058508;28;20033;-70
2023/12/11 01:06:02;;;;;;;22.00;4.57;;;;;;;10.51;86.34;99852.94;5062781;28;20111;-69
2023/12/11 01:08:27;;;;;;;22.90;4.32;;;;;;;10.52;86.12;99858.13;5053499;28;20108;-69
2023/12/11 01:10:54;;;;;;;24.95;4.57;;;;;;;10.57;86.28;99863.16;5061745;28;20078;-69
2023/12/11 01:13:20;;;;;;;29.92;4.65;;;;;;;10.53;86.28;99857.16;5059479;28;20024;-70
2023/12/11 01:15:45;;;;;;;27.30;4.13;;;;;;;10.54;86.74;99858.03;5056942;28;20193;-70
2023/12/11 01:18:11;;;;;;;27.35;4.20;;;;;;;10.55;86.59;99857.97;5056486;28;20028;-70
2023/12/11 01:20:36;;;;;;;24.73;4.13;;;;;;;10.51;86.69;99851.13;5056719;28;20017;-69
2023/12/11 01:23:02;;;;;;;21.30;3.88;;;;;;;10.61;86.28;99848.81;5060618;28;20027;-70
2023/12/11 01:25:27;;;;;;;25.80;4.63;;;;;;;10.56;86.56;99851.72;5062389;28;20078;-70
2023/12/11 01:27:53;;;;;;;23.83;4.15;;;;;;;10.65;86.00;99845.06;5057460;28;20052;-72
2023/12/11 01:30:18;;;;;;;22.85;3.70;;;;;;;10.64;86.02;99846.03;5054713;28;20039;-71
2023/12/11 01:32:44;;;;;;;32.10;4.80;;;;;;;10.65;85.80;99860.94;5057391;28;20035;-71
2023/12/11 01:35:09;;;;;;;34.58;4.55;;;;;;;10.69;85.30;99842.19;5058299;28;20036;-72
2023/12/11 01:37:34;;;;;;;31.95;4.95;;;;;;;10.65;85.64;99843.28;5058245;28;20017;-70
2023/12/11 01:40:00;;;;;;;34.15;4.75;;;;;;;10.71;85.27;99835.00;5054987;28;20036;-70
2023/12/11 01:42:25;;;;;;;19.55;3.15;;;;;;;10.70;84.78;99835.94;5056952;28;20028;-70
2023/12/11 01:44:51;;;;;;;29.50;4.75;;;;;;;10.65;84.63;99832.72;5054531;28;20087;-70
2023/12/11 01:47:17;;;;;;;27.50;4.43;;;;;;;10.63;84.77;99826.69;5058762;28;20025;-70
2023/12/11 01:49:43;;;;;;;31.08;4.80;;;;;;;10.64;84.65;99833.66;5055798;28;20104;-70
2023/12/11 01:52:09;;;;;;;20.33;3.85;;;;;;;10.70;84.80;99838.59;5059006;28;20511;-69
2023/12/11 01:54:37;;;;;;;32.80;4.85;;;;;;;10.78;84.12;99822.31;5058322;28;20036;-69
2023/12/11 01:57:03;;;;;;;28.85;5.78;;;;;;;10.80;83.81;99825.69;5060915;28;20488;-70
2023/12/11 01:59:28;;;;;;;22.08;3.63;;;;;;;10.79;83.75;99815.22;5056716;28;20017;-70
2023/12/11 02:01:54;;;;;;;29.65;4.43;;;;;;;10.82;83.55;99805.31;5065100;28;20464;-69
2023/12/11 02:04:19;;;;;;;20.10;3.72;;;;;;;10.84;83.77;99805.22;5056537;28;20428;-70
2023/12/11 02:06:45;;;;;;;20.83;3.80;;;;;;;10.89;82.79;99805.81;5052143;28;20882;-70
2023/12/11 02:09:11;;;;;;;21.75;4.28;;;;;;;10.95;82.67;99793.06;5054088;28;20029;-70
2023/12/11 02:11:36;;;;;;;24.77;3.45;;;;;;;11.02;82.52;99785.63;5057065;28;20021;-70
2023/12/11 02:14:01;;;;;;;15.75;2.92;;;;;;;11.09;82.54;99796.69;5059332;28;20024;-70
2023/12/11 02:16:27;;;;;;;22.52;3.30;;;;;;;11.03;82.70;99797.91;5060122;28;20025;-70
2023/12/11 02:18:52;;;;;;;29.88;5.78;;;;;;;10.99;82.63;99799.88;5060217;28;20036;-69
2023/12/11 02:21:18;;;;;;;23.02;3.05;;;;;;;11.04;82.42;99789.03;5059207;28;20020;-70
2023/12/11 02:23:48;;;;;;;18.98;4.20;;;;;;;11.05;81.84;99790.75;5058467;28;20528;-70
2023/12/11 02:26:16;;;;;;;23.65;4.32;;;;;;;11.10;81.88;99782.56;5054833;28;20032;-70
2023/12/11 02:28:42;;;;;;;17.42;3.60;;;;;;;11.09;81.82;99786.13;5053184;28;20092;-70
2023/12/11 02:31:08;;;;;;;21.85;4.47;;;;;;;11.03;82.14;99779.41;5054615;28;20036;-70
2023/12/11 02:33:33;;;;;;;22.92;4.10;;;;;;;11.05;81.44;99790.75;5059000;28;20029;-70
2023/12/11 02:35:59;;;;;;;19.05;3.35;;;;;;;11.01;82.10;99781.31;5056313;28;20546;-69
2023/12/11 02:38:24;;;;;;;23.63;3.80;;;;;;;11.06;81.80;99781.88;5063162;28;20757;-70
2023/12/11 02:40:50;;;;;;;31.63;4.25;;;;;;;11.04;81.93;99769.66;5068251;28;20025;-70
2023/12/11 02:43:15;;;;;;;23.02;3.88;;;;;;;11.06;82.30;99778.38;5063144;28;20032;-70
2023/12/11 02:45:44;;;;;;;25.10;4.15;;;;;;;11.04;82.18;99764.38;5056236;28;20249;-70
2023/12/11 02:48:10;;;;;;;24.05;5.53;;;;;;;11.06;81.81;99763.38;5054941;28;20081;-71
2023/12/11 02:50:36;;;;;;;25.45;4.55;;;;;;;10.99;82.32;99756.72;5066813;28;20043;-71
2023/12/11 02:53:03;;;;;;;20.50;3.67;;;;;;;10.99;82.11;99757.56;5064227;28;20017;-71
2023/12/11 02:55:28;;;;;;;20.02;4.00;;;;;;;10.94;82.63;99757.00;5067135;28;20050;-72
2023/12/11 02:58:00;;;;;;;22.63;4.18;;;;;;;10.91;82.62;99756.31;5062756;28;20217;-71
2023/12/11 03:00:27;;;;;;;18.60;3.58;;;;;;;10.89;82.85;99750.28;5062026;28;20017;-71
2023/12/11 03:02:53;;;;;;;22.73;3.75;;;;;;;10.86;82.95;99734.59;5064076;28;20617;-71
2023/12/11 03:05:19;;;;;;;12.63;2.97;;;;;;;10.83;83.46;99726.84;5062977;28;20056;-71
2023/12/11 03:07:44;;;;;;;25.98;4.47;;;;;;;10.77;83.66;99728.06;5059750;28;20020;-71
2023/12/11 03:10:09;;;;;;;20.73;3.20;;;;;;;10.67;84.08;99717.16;5060679;28;20024;-71
2023/12/11 03:12:35;;;;;;;14.35;3.70;;;;;;;10.67;83.69;99725.09;5063801;28;20449;-71
2023/12/11 03:15:02;;;;;;;17.50;3.08;;;;;;;10.58;84.19;99722.13;5056253;28;20029;-71
2023/12/11 03:17:27;;;;;;;27.35;3.88;;;;;;;10.54;84.37;99716.19;5058341;28;20408;-72
2023/12/11 03:19:53;;;;;;;16.70;3.92;;;;;;;10.55;84.51;99711.75;5064473;28;20032;-69
2023/12/11 03:22:19;;;;;;;28.55;4.43;;;;;;;10.50;85.15;99716.47;5059393;28;20055;-70
2023/12/11 03:24:44;;;;;;;26.02;3.30;;;;;;;10.52;84.91;99704.84;5066947;28;20035;-69
2023/12/11 03:27:09;;;;;;;23.80;4.65;;;;;;;10.49;84.57;99705.00;5061347;28;20051;-69
2023/12/11 03:29:35;;;;;;;20.30;4.63;;;;;;;10.45;85.04;99690.31;5059269;28;20033;-70
2023/12/11 03:32:00;;;;;;;17.65;3.08;;;;;;;10.50;84.72;99690.88;5059827;28;20056;-70
2023/12/11 03:34:26;;;;;;;19.73;3.38;;;;;;;10.56;84.51;99690.50;5062810;28;20078;-70
2023/12/11 03:36:51;;;;;;;22.98;3.42;;;;;;;10.58;84.19;99688.63;5053665;28;20029;-69
2023/12/11 03:39:16;;;;;;;23.55;3.30;;;;;;;10.62;84.02;99681.38;5060868;28;20020;-70
2023/12/11 03:41:44;;;;;;;17.65;2.90;;;;;;;10.65;83.74;99708.47;5063892;28;20283;-70
2023/12/11 03:44:10;;;;;;;20.70;3.88;;;;;;;10.68;83.48;99697.75;5059694;28;20090;-70
2023/12/11 03:46:35;;;;;;;19.33;3.30;;;;;;;10.71;83.26;99694.03;5058861;28;20472;-70
2023/12/11 03:49:01;;;;;;;16.95;3.03;;;;;;;10.62;83.57;99697.22;5067205;28;20031;-70
2023/12/11 03:51:26;;;;;;;16.55;3.20;;;;;;;10.63;83.61;99696.28;5061953;28;20028;-70
2023/12/11 03:53:52;;;;;;;18.45;2.80;;;;;;;10.62;83.70;99703.38;5061906;28;20514;-70
2023/12/11 03:56:17;;;;;;;15.57;3.58;;;;;;;10.58;84.40;99696.53;5062397;28;20441;-70
2023/12/11 03:58:43;;;;;;;17.33;3.05;;;;;;;10.63;84.53;99693.63;5056556;28;20382;-69
2023/12/11 04:01:09;;;;;;;15.45;2.88;;;;;;;10.56;85.12;99697.59;5063951;28;20040;-70
2023/12/11 04:03:34;;;;;;;21.25;2.90;;;;;;;10.57;84.40;99696.66;5061686;28;20051;-69
2023/12/11 04:06:00;;;;;;;16.83;2.97;;;;;;;10.56;84.13;99697.59;5064098;28;20047;-70
2023/12/11 04:08:25;;;;;;;13.30;2.85;;;;;;;10.38;85.19;99694.22;5057941;28;20464;-69
2023/12/11 04:10:50;;;;;;;19.17;3.42;;;;;;;10.38;85.84;99691.59;5066954;28;20078;-69
2023/12/11 04:13:16;;;;;;;16.02;3.05;;;;;;;10.38;86.08;99694.22;5060912;28;20025;-70
2023/12/11 04:15:41;;;;;;;17.13;2.40;;;;;;;10.47;85.56;99701.63;5066700;28;20040;-70
2023/12/11 04:18:07;;;;;;;18.27;2.60;;;;;;;10.44;85.87;99705.31;5064557;28;20020;-70
2023/12/11 04:20:32;;;;;;;17.77;3.53;;;;;;;10.44;85.93;99686.81;5054618;28;20339;-70
2023/12/11 04:22:58;;;;;;;13.18;2.60;;;;;;;10.55;86.25;99701.19;5063265;28;20507;-70
2023/12/11 04:25:23;;;;;;;24.08;3.55;;;;;;;10.41;87.69;99696.69;5064008;28;20540;-70
2023/12/11 04:27:48;;;;;;;19.20;3.30;;;;;;;10.36;88.54;99696.97;5059576;28;20033;-70
2023/12/11 04:30:14;;;;;;;21.63;4.10;;;;;;;10.34;89.72;99700.63;5057376;28;20048;-72
2023/12/11 04:32:39;;;;;;;17.88;3.83;;;;;;;10.30;89.92;99686.72;5061834;28;20071;-72
2023/12/11 04:35:05;;;;;;;26.00;3.30;;;;;;;10.26;90.49;99682.59;5064693;28;20025;-72
2023/12/11 04:37:30;;;;;;;20.55;4.03;;;;;;;10.44;89.74;99685.94;5057622;28;20032;-72
2023/12/11 04:39:55;;;;;;;22.13;3.50;;;;;;;10.45;89.95;99685.88;5059376;28;20065;-72
2023/12/11 04:42:21;;;;;;;22.52;3.60;;;;;;;10.50;89.58;99675.03;5060863;28;20020;-72
2023/12/11 04:44:46;;;;;;;19.92;2.92;;;;;;;10.55;89.15;99678.25;5055624;28;20389;-72
2023/12/11 04:47:12;;;;;;;22.98;3.65;;;;;;;10.45;89.98;99671.81;5057189;28;20945;-72
2023/12/11 04:49:37;;;;;;;21.27;4.07;;;;;;;10.28;90.29;99658.72;5054583;28;20121;-73
2023/12/11 04:52:03;;;;;;;16.38;3.00;;;;;;;10.26;90.24;99676.44;5056426;28;20476;-71
2023/12/11 04:54:28;;;;;;;20.83;4.05;;;;;;;10.25;90.29;99670.28;5065667;28;20028;-72
2023/12/11 04:56:54;;;;;;;23.42;3.60;;;;;;;10.26;90.43;99669.38;5060184;28;20053;-72
2023/12/11 04:59:19;;;;;;;20.77;3.83;;;;;;;10.25;90.13;99675.56;5063301;28;20025;-72
2023/12/11 05:01:45;;;;;;;25.48;4.90;;;;;;;10.25;89.99;99661.53;5060450;28;20028;-72
2023/12/11 05:04:10;;;;;;;18.10;2.58;;;;;;;10.30;89.54;99670.03;5062708;28;20021;-72
2023/12/11 05:06:35;;;;;;;23.50;3.90;;;;;;;10.36;90.07;99673.19;5065352;28;20028;-72
2023/12/11 05:09:01;;;;;;;15.43;2.95;;;;;;;10.31;91.80;99671.75;5063429;28;20064;-72
2023/12/11 05:11:26;;;;;;;22.75;4.47;;;;;;;10.22;92.53;99665.19;5061778;28;20404;-72
2023/12/11 05:13:51;;;;;;;16.75;3.40;;;;;;;10.25;94.47;99670.28;5064221;28;20096;-72
2023/12/11 05:16:17;;;;;;;11.48;2.67;;;;;;;10.15;94.23;99677.88;5059387;28;20025;-72
2023/12/11 05:18:42;;;;;;;14.70;3.10;;;;;;;10.13;94.47;99679.75;5059146;28;20012;-73
2023/12/11 05:21:09;;;;;;;23.60;5.18;;;;;;;10.08;95.06;99673.88;5060643;28;20043;-72
2023/12/11 05:23:34;;;;;;;29.52;4.05;;;;;;;10.03;95.27;99681.22;5067021;28;20029;-72
2023/12/11 05:26:00;;;;;;;29.73;4.03;;;;;;;10.05;94.73;99695.16;5065100;28;20395;-73
2023/12/11 05:28:25;;;;;;;16.33;2.97;;;;;;;10.06;95.25;99680.19;5053911;28;20066;-72
2023/12/11 05:30:50;;;;;;;16.90;3.38;;;;;;;10.11;93.99;99692.19;5058757;28;20494;-72
2023/12/11 05:33:16;;;;;;;21.13;3.25;;;;;;;10.12;94.45;99693.91;5055486;28;20028;-72
2023/12/11 05:35:41;;;;;;;18.80;3.10;;;;;;;10.10;94.92;99679.91;5058031;28;20046;-71
2023/12/11 05:38:07;;;;;;;23.67;4.28;;;;;;;10.12;94.39;99685.97;5059379;28;20048;-69
2023/12/11 05:40:32;;;;;;;23.92;3.72;;;;;;;10.06;93.97;99678.38;5054979;28;20408;-69
2023/12/11 05:42:57;;;;;;;15.32;2.83;;;;;;;10.13;93.84;99678.91;5057441;28;20028;-70
2023/12/11 05:45:23;;;;;;;18.42;3.70;;;;;;;10.15;93.52;99674.38;5058565;28;20058;-69
2023/12/11 05:47:48;;;;;;;18.13;3.20;;;;;;;10.16;93.31;99658.44;5058932;28;20033;-69
2023/12/11 05:50:14;;;;;;;21.38;3.53;;;;;;;10.18;92.93;99669.78;5058426;28;20025;-69
2023/12/11 05:52:39;;;;;;;19.92;3.10;;;;;;;10.22;92.58;99665.19;5058079;28;20055;-69
2023/12/11 05:55:05;;;;;;;18.35;3.55;;;;;;;10.29;92.09;99666.53;5061232;28;20039;-69
2023/12/11 05:57:30;;;;;;;23.23;3.83;;;;;;;10.21;91.47;99658.16;5057991;28;20418;-70
2023/12/11 05:59:55;;;;;;;20.13;2.85;;;;;;;10.30;90.93;99670.03;5057539;28;20032;-69
2023/12/11 06:02:21;;;;;;;14.55;3.15;;;;;;;10.28;91.50;99667.50;5054856;28;20443;-69
2023/12/11 06:04:46;;;;;;;22.98;3.47;;;;;;;10.27;91.13;99675.50;5062958;28;20099;-69
2023/12/11 06:07:11;;;;;;;17.10;3.10;;;;;;;10.21;91.90;99660.81;5061738;28;20082;-69
2023/12/11 06:09:37;;;;;;;15.30;2.90;;;;;;;10.24;92.31;99655.41;5060404;28;20472;-69
2023/12/11 06:12:03;;;;;;;17.20;3.30;;;;;;;10.16;92.43;99663.72;5059961;28;20140;-70
2023/12/11 06:14:28;;;;;;;17.35;3.00;;;;;;;10.16;91.85;99663.72;5059955;28;20221;-70
2023/12/11 06:16:54;;;;;;;19.73;3.55;;;;;;;10.20;92.14;99661.75;5057751;28;20519;-69
2023/12/11 06:19:20;;;;;;;22.85;4.13;;;;;;;10.16;92.25;99661.06;5055354;28;20052;-70
2023/12/11 06:21:45;;;;;;;22.85;3.25;;;;;;;10.15;92.54;99666.44;5065696;28;20031;-70
2023/12/11 06:24:10;;;;;;;25.33;3.67;;;;;;;10.17;92.27;99667.22;5053109;28;20112;-70
2023/12/11 06:26:36;;;;;;;13.57;2.97;;;;;;;10.17;92.57;99678.66;5060469;28;20036;-70
2023/12/11 06:29:02;;;;;;;15.57;3.13;;;;;;;10.17;91.96;99667.22;5060595;28;20696;-70
2023/12/11 06:31:29;;;;;;;25.08;4.10;;;;;;;10.16;92.42;99666.34;5054076;28;20477;-70
2023/12/11 06:33:55;;;;;;;20.88;3.85;;;;;;;10.13;92.24;99669.19;5059022;28;20514;-69
2023/12/11 06:36:25;;;;;;;20.65;3.42;;;;;;;10.08;92.66;99660.69;5074085;28;20032;-69
2023/12/11 06:38:51;;;;;;;21.35;4.35;;;;;;;10.08;92.37;99655.41;5055496;28;20079;-70
2023/12/11 06:41:20;;;;;;;19.42;4.20;;;;;;;10.10;92.75;99673.78;5059527;28;20155;-69
2023/12/11 06:43:52;;;;;;;18.92;2.90;;;;;;;10.10;92.93;99666.72;5060098;28;20029;-69
2023/12/11 06:46:17;;;;;;;27.95;5.43;;;;;;;10.09;92.46;99670.31;5055294;28;20419;-70
2023/12/11 06:48:43;;;;;;;14.23;3.80;;;;;;;10.12;92.43;99672.78;5062189;28;20032;-69
2023/12/11 06:51:08;;;;;;;16.63;3.40;;;;;;;10.22;91.20;99667.81;5057060;28;20037;-70
2023/12/11 06:53:34;;;;;;;23.35;3.75;;;;;;;10.19;90.68;99670.63;5063998;28;20020;-70
2023/12/11 06:55:59;;;;;;;18.60;3.42;;;;;;;10.15;90.83;99672.59;5056774;28;20104;-69
2023/12/11 06:58:24;;;;;;;20.75;3.28;;;;;;;10.27;90.37;99678.16;5056723;28;20041;-70
2023/12/11 07:00:50;;;;;;;18.50;3.40;;;;;;;10.35;89.50;99679.41;5060693;28;20590;-69
2023/12/11 07:03:17;;;;;;;17.10;3.45;;;;;;;10.36;88.79;99669.69;5062982;28;20047;-70
2023/12/11 07:05:43;;;;;;;15.63;2.47;;;;;;;10.26;89.11;99681.72;5057458;28;20503;-70
2023/12/11 07:08:08;;;;;;;15.18;3.83;;;;;;;10.31;89.55;99688.47;5060698;28;20032;-71
2023/12/11 07:10:34;;;;;;;13.77;2.88;;;;;;;10.28;89.06;99693.91;5061228;28;20031;-70
2023/12/11 07:12:59;;;;;;;17.60;3.30;;;;;;;10.28;89.71;99693.91;5054848;28;20029;-70
2023/12/11 07:15:25;;;;;;;17.95;2.75;;;;;;;10.24;89.50;99705.56;5056796;28;20033;-70
2023/12/11 07:17:50;;;;;;;16.48;2.47;;;;;;;10.21;89.96;99700.44;5062679;28;20019;-70
2023/12/11 07:20:15;;;;;;;17.55;2.60;;;;;;;10.17;90.64;99717.41;5057106;28;20511;-70
2023/12/11 07:22:44;;;;;;;13.48;3.35;;;;;;;10.11;91.32;99701.91;5060910;28;20060;-70
2023/12/11 07:25:10;;;;;;;15.80;3.97;;;;;;;10.11;90.18;99715.09;5060244;28;20043;-69
2023/12/11 07:27:36;;;;;;;17.52;3.10;;;;;;;10.08;91.48;99718.78;5063515;28;20032;-70
2023/12/11 07:30:01;;;;;;;17.95;2.45;;;;;;;10.07;90.99;99722.38;5061308;28;20046;-69
2023/12/11 07:32:26;;;;;;;15.40;3.00;;;;;;;10.11;89.85;99723.88;5057159;28;20083;-69
2023/12/11 07:34:52;;;;;;;14.13;2.47;;;;;;;10.14;88.98;99729.00;5063936;28;20039;-70
2023/12/11 07:37:17;;;;;;;14.05;2.28;;;;;;;10.20;89.09;99728.63;5061428;28;20495;-70
2023/12/11 07:39:42;;;;;;;17.58;3.22;;;;;;;10.31;88.58;99728.09;5061542;28;20039;-71
2023/12/11 07:42:08;;;;;;;16.33;2.45;;;;;;;10.34;89.00;99745.53;5058025;28;20111;-72
2023/12/11 07:44:33;;;;;;;14.38;2.72;;;;;;;10.22;89.66;99747.06;5056699;28;20045;-71
2023/12/11 07:46:59;;;;;;;16.75;2.50;;;;;;;10.16;89.24;99752.66;5055846;28;20100;-72
2023/12/11 07:49:25;;;;;;;15.35;2.80;;;;;;;10.16;88.90;99747.38;5061418;28;20058;-71
2023/12/11 07:51:53;;;;;;;16.70;2.95;;;;;;;10.17;88.99;99749.09;5053971;28;20222;-72
2023/12/11 07:54:18;;;;;;;11.98;2.80;;;;;;;10.16;88.65;99755.31;5064982;28;20028;-72
2023/12/11 07:56:44;;;;;;;16.65;2.55;;;;;;;10.17;89.37;99760.53;5052563;28;20131;-71
2023/12/11 07:59:10;;;;;;;10.82;2.42;;;;;;;10.10;89.51;99760.94;5064098;28;20063;-69
2023/12/11 08:01:35;;;;;;;12.10;3.13;;;;;;;10.04;90.00;99785.06;5057313;28;20031;-69
2023/12/11 08:04:01;;;;;;;8.82;2.05;;;;;;;10.08;89.52;99774.25;5058270;28;20031;-70
2023/12/11 08:06:27;;;;;;;14.95;2.72;;;;;;;10.12;90.04;99767.00;5060904;28;20032;-70
2023/12/11 08:08:52;;;;;;;8.18;1.70;;;;;;;10.11;89.50;99787.25;5063219;28;20033;-70
2023/12/11 08:11:19;;;;;;;12.82;2.75;;;;;;;10.14;89.23;99784.44;5055831;28;20025;-69
2023/12/11 08:13:44;;;;;;;13.80;2.30;;;;;;;10.15;88.79;99793.22;5054998;28;20061;-69
2023/12/11 08:16:10;;;;;;;12.07;2.25;;;;;;;10.21;88.78;99798.16;5063159;28;20433;-69
2023/12/11 08:18:36;;;;;;;14.23;2.05;;;;;;;10.23;87.97;99789.22;5065423;28;20048;-69
2023/12/11 08:21:03;;;;;;;11.15;2.00;;;;;;;10.33;87.84;99804.59;5062906;28;20055;-69
2023/12/11 08:23:28;;;;;;;13.07;2.05;;;;;;;10.35;87.44;99802.72;5065381;28;20387;-71
2023/12/11 08:25:54;;;;;;;14.48;2.55;;;;;;;10.29;87.79;99810.97;5065602;28;20024;-70
2023/12/11 08:28:19;;;;;;;9.45;1.60;;;;;;;10.28;87.81;99818.06;5063346;28;20028;-70
2023/12/11 08:30:44;;;;;;;15.65;2.40;;;;;;;10.32;87.83;99821.41;5054620;28;20055;-70
2023/12/11 08:33:10;;;;;;;12.20;2.17;;;;;;;10.33;87.18;99823.09;5068026;28;20031;-70
2023/12/11 08:35:35;;;;;;;13.20;2.30;;;;;;;10.33;87.67;99844.22;5059357;28;20443;-70
2023/12/11 08:38:01;;;;;;;11.40;2.45;;;;;;;10.32;87.48;99847.81;5063075;28;20103;-70
2023/12/11 08:40:26;;;;;;;16.90;2.20;;;;;;;10.29;88.74;99872.59;5055525;28;20029;-71
2023/12/11 08:42:51;;;;;;;16.08;3.63;;;;;;;10.28;88.70;99873.53;5061463;28;20036;-69
2023/12/11 08:45:17;;;;;;;13.23;2.72;;;;;;;10.21;88.43;99875.63;5058784;28;20039;-70
2023/12/11 08:47:42;;;;;;;12.43;2.72;;;;;;;10.23;89.41;99876.41;5056052;28;20060;-70
2023/12/11 08:50:08;;;;;;;8.55;1.45;;;;;;;10.11;89.79;99874.41;5059893;28;20499;-70
2023/12/11 08:52:34;;;;;;;13.48;2.53;;;;;;;10.13;89.09;99875.19;5060017;28;20043;-70
2023/12/11 08:55:00;;;;;;;10.13;1.77;;;;;;;10.24;89.09;99890.47;5061852;28;20107;-71
2023/12/11 08:57:25;;;;;;;7.15;1.85;;;;;;;10.18;89.50;99883.72;5054107;28;20048;-70
2023/12/11 08:59:50;;;;;;;15.23;2.08;;;;;;;10.17;90.15;99903.16;5065971;28;20024;-70
2023/12/11 09:02:16;;;;;;;7.28;1.92;;;;;;;10.16;90.20;99892.66;5063545;28;20395;-71
2023/12/11 09:04:41;;;;;;;10.30;2.22;;;;;;;10.14;89.72;99900.66;5059921;28;20040;-70
2023/12/11 09:07:09;;;;;;;12.88;1.90;;;;;;;10.17;89.57;99908.44;5054325;28;20021;-69
2023/12/11 09:09:35;;;;;;;15.70;2.63;;;;;;;10.33;88.91;99915.56;5055550;28;20028;-70
2023/12/11 09:12:01;;;;;;;12.40;2.33;;;;;;;10.25;89.18;99926.53;5050899;28;20082;-70
2023/12/11 09:14:26;;;;;;;9.50;1.98;;;;;;;10.42;87.25;99923.84;5054604;28;20031;-70
2023/12/11 09:16:52;;;;;;;7.88;1.70;;;;;;;10.28;88.25;99929.00;5058290;28;20043;-69
2023/12/11 09:19:17;;;;;;;9.80;2.03;;;;;;;10.27;88.03;99943.16;5060120;28;20024;-70
2023/12/11 09:21:43;;;;;;;13.57;1.73;;;;;;;10.33;87.96;99952.53;5056810;28;20104;-69
2023/12/11 09:24:09;;;;;;;7.25;1.55;;;;;;;10.38;87.78;99958.44;5057706;28;20032;-71
2023/12/11 09:26:34;;;;;;;7.70;1.63;;;;;;;10.44;86.83;99960.75;5059217;28;20121;-70
2023/12/11 09:29:00;;;;;;;11.05;1.80;;;;;;;10.59;87.11;99967.00;5057263;28;20459;-70
2023/12/11 09:31:25;;;;;;;6.68;1.90;;;;;;;10.72;86.71;99975.97;5056262;28;20082;-71
2023/12/11 09:33:51;;;;;;;11.00;2.42;;;;;;;10.73;85.58;99973.25;5062745;28;20024;-70
2023/12/11 09:36:17;;;;;;;10.43;2.08;;;;;;;10.74;85.01;99982.03;5061589;28;20480;-70
2023/12/11 09:38:43;;;;;;;7.65;1.98;;;;;;;10.74;85.11;99992.59;5055040;28;20040;-70
2023/12/11 09:41:08;;;;;;;8.15;1.48;;;;;;;10.91;84.58;99989.91;5052483;28;20063;-69
2023/12/11 09:43:35;;;;;;;6.53;1.67;;;;;;;11.30;82.87;99985.94;5049364;28;20438;-70
2023/12/11 09:46:05;;;;;;;10.05;1.45;;;;;;;11.40;81.75;99995.06;5053322;28;20024;-71
2023/12/11 09:48:30;;;;;;;8.93;1.60;;;;;;;11.37;81.66;100007.63;5060697;28;20056;-70
2023/12/11 09:50:55;;;;;;;7.75;1.58;;;;;;;11.40;82.12;100020.69;5055872;28;20075;-70
2023/12/11 09:53:21;;;;;;;7.10;1.40;;;;;;;11.63;80.60;100020.22;5054205;28;20503;-70
2023/12/11 09:55:48;;;;;;;6.78;1.80;;;;;;;11.67;80.00;100018.25;5058175;28;20029;-70
2023/12/11 09:58:14;;;;;;;6.35;1.73;;;;;;;12.12;79.17;100017.38;5057842;28;20484;-71
2023/12/11 10:00:40;;;;;;;4.75;1.40;;;;;;;12.63;76.37;100023.09;5058538;28;20481;-71
2023/12/11 10:03:07;;;;;;;5.55;2.10;;;;;;;12.55;76.40;100030.69;5057173;28;21010;-70
2023/12/11 10:05:35;;;;;;;5.70;1.17;;;;;;;12.31;76.70;100032.16;5059192;28;20568;-70
2023/12/11 10:08:01;;;;;;;11.43;1.70;;;;;;;12.06;77.87;100041.59;5058191;28;20029;-70
2023/12/11 10:10:30;;;;;;;5.57;1.33;;;;;;;11.71;78.74;100036.53;5051128;28;20044;-71
2023/12/11 10:12:56;;;;;;;8.82;1.83;;;;;;;11.48;80.03;100045.78;5056645;28;20063;-71
2023/12/11 10:15:27;;;;;;;6.97;1.33;;;;;;;11.69;79.38;100042.84;5057013;28;20520;-70
2023/12/11 10:18:19;;;;;;;8.65;1.75;;;;;;;11.68;79.53;100046.44;5064657;28;20021;-70
2023/12/11 10:20:53;;;;;;;7.80;2.08;;;;;;;11.64;79.64;100056.34;5063763;28;20048;-71
2023/12/11 10:23:21;;;;;;;7.28;1.52;;;;;;;11.57;79.07;100067.38;5058174;28;20447;-71
2023/12/11 10:25:49;;;;;;;6.85;1.52;;;;;;;11.45;79.50;100067.13;5058081;28;20086;-72
2023/12/11 10:28:16;;;;;;;7.97;1.70;;;;;;;11.40;80.53;100076.25;5061370;28;20385;-72
2023/12/11 10:30:56;;;;;;;6.40;1.50;;;;;;;11.38;81.09;100084.31;5061302;28;20119;-72
2023/12/11 10:33:24;;;;;;;11.63;1.80;;;;;;;11.28;80.63;100069.84;5055253;28;20383;-72
2023/12/11 10:35:50;;;;;;;9.25;1.75;;;;;;;11.27;80.86;100078.72;5066115;28;20508;-71
2023/12/11 10:38:25;;;;;;;8.55;1.60;;;;;;;11.26;81.08;100097.34;5059939;28;20043;-71
2023/12/11 10:40:52;;;;;;;4.13;1.10;;;;;;;11.21;81.03;100103.75;5062166;28;20051;-69
2023/12/11 10:43:18;;;;;;;8.68;1.30;;;;;;;11.19;80.96;100100.34;5064948;28;20131;-71
2023/12/11 10:45:45;;;;;;;5.80;1.42;;;;;;;11.14;81.71;100102.34;5054753;28;20115;-70
2023/12/11 10:48:11;;;;;;;10.75;2.00;;;;;;;11.09;81.90;100107.03;5057074;28;20021;-70
2023/12/11 10:50:37;;;;;;;6.45;1.40;;;;;;;11.06;82.80;100111.66;5056704;28;20039;-71
2023/12/11 10:53:05;;;;;;;4.85;1.40;;;;;;;11.05;82.85;100125.81;5062739;28;20174;-69
2023/12/11 10:55:32;;;;;;;1.52;0.68;;;;;;;10.91;82.35;100127.41;5057494;28;20033;-70
2023/12/11 10:58:00;;;;;;;3.97;0.68;;;;;;;10.82;83.12;100135.84;5066731;28;20518;-70
2023/12/11 11:00:27;;;;;;;1.45;0.50;;;;;;;10.67;84.67;100148.03;5057224;28;20039;-70
2023/12/11 11:02:55;;;;;;;1.60;0.60;;;;;;;10.58;84.14;100152.94;5057499;28;20697;-70
2023/12/11 11:05:22;;;;;;;2.03;0.63;;;;;;;10.39;85.18;100150.38;5063033;28;20388;-70
2023/12/11 11:08:00;;;;;;;1.90;0.50;;;;;;;10.40;84.86;100155.59;5057151;28;20024;-69
2023/12/11 11:10:38;;;;;;;3.33;0.70;;;;;;;10.34;85.64;100160.31;5057532;28;20436;-69
2023/12/11 11:13:08;;;;;;;3.78;1.33;;;;;;;10.28;85.65;100168.56;5059887;28;20024;-68
2023/12/11 11:15:33;;;;;;;3.25;0.85;;;;;;;10.33;85.37;100177.13;5063098;28;20344;-70
2023/12/11 11:18:01;;;;;;;2.65;1.13;;;;;;;10.12;86.71;100173.72;5059299;28;20489;-71
2023/12/11 11:20:31;;;;;;;3.70;1.02;;;;;;;10.08;87.13;100166.88;5056764;28;20032;-69